createdAt,value
2023-03-29T00:00:00.599Z,64.46
2023-03-29T00:02:48.964Z,65.29
2023-03-29T00:05:36.525Z,65.31
2023-03-29T00:08:21.983Z,64.51
2023-03-29T00:11:07.544Z,64.60
2023-03-29T00:13:53.186Z,65.28
2023-03-29T00:16:38.864Z,64.81
2023-03-29T00:19:23.627Z,65.75
2023-03-29T00:22:08.511Z,65.06
2023-03-29T00:24:54.392Z,65.09
2023-03-29T00:27:40.164Z,64.20
2023-03-29T00:30:26.366Z,65.01
2023-03-29T00:33:12.441Z,65.16
2023-03-29T00:35:57.470Z,64.17
2023-03-29T00:38:42.618Z,64.81
2023-03-29T00:41:27.665Z,64.89
2023-03-29T00:44:51.042Z,63.07
2023-03-29T00:47:45.438Z,64.43
2023-03-29T00:50:41.521Z,63.78
2023-03-29T00:53:29.248Z,64.73
2023-03-29T00:56:22.668Z,65.61
2023-03-29T00:59:15.932Z,66.71
2023-03-29T01:02:07.063Z,67.97
2023-03-29T01:04:52.291Z,67.15
2023-03-29T01:07:53.512Z,66.12
2023-03-29T01:10:47.822Z,65.71
2023-03-29T01:14:08.384Z,65.85
2023-03-29T01:16:53.247Z,66.50
2023-03-29T01:19:43.934Z,65.86
2023-03-29T01:22:47.209Z,65.85
2023-03-29T01:25:55.402Z,65.50
2023-03-29T01:28:46.698Z,65.86
2023-03-29T01:31:37.323Z,66.00
2023-03-29T01:34:48.140Z,69.27
2023-03-29T01:37:49.310Z,67.21
2023-03-29T01:40:34.661Z,68.08
2023-03-29T01:43:26.625Z,68.09
2023-03-29T01:46:21.567Z,68.23
2023-03-29T01:49:21.734Z,68.24
2023-03-29T01:52:13.613Z,69.52
2023-03-29T01:55:07.123Z,70.57
2023-03-29T01:57:55.507Z,71.19
2023-03-29T02:00:42.363Z,69.74
2023-03-29T02:03:30.770Z,68.50
2023-03-29T02:06:20.482Z,71.03
2023-03-29T02:09:07.017Z,70.49
2023-03-29T02:11:53.656Z,70.30
2023-03-29T02:14:38.868Z,70.90
2023-03-29T02:17:26.418Z,69.93
2023-03-29T02:20:26.051Z,69.55
2023-03-29T02:23:21.116Z,67.70
2023-03-29T02:26:07.012Z,67.63
2023-03-29T02:28:52.968Z,68.35
2023-03-29T02:32:05.929Z,68.48
2023-03-29T02:34:58.812Z,69.17
2023-03-29T02:37:49.986Z,68.62
2023-03-29T02:40:37.514Z,69.84
2023-03-29T02:43:25.882Z,67.76
2023-03-29T02:46:13.694Z,69.73
2023-03-29T02:48:59.730Z,72.01
2023-03-29T02:51:47.444Z,68.09
2023-03-29T02:54:32.593Z,70.60
2023-03-29T02:57:18.129Z,68.91
2023-03-29T03:00:05.253Z,69.26
2023-03-29T03:02:51.111Z,68.68
2023-03-29T03:05:36.089Z,69.20
2023-03-29T03:08:21.485Z,69.17
2023-03-29T03:11:07.040Z,72.20
2023-03-29T03:13:51.976Z,69.98
2023-03-29T03:16:37.596Z,68.68
2023-03-29T03:19:22.579Z,67.55
2023-03-29T03:22:08.111Z,71.04
2023-03-29T03:24:53.248Z,71.78
2023-03-29T03:27:39.823Z,69.19
2023-03-29T03:30:25.399Z,66.60
2023-03-29T03:33:11.406Z,71.91
2023-03-29T03:36:04.842Z,68.34
2023-03-29T03:38:50.899Z,65.87
2023-03-29T03:41:36.369Z,68.30
2023-03-29T03:44:21.459Z,68.69
2023-03-29T03:47:06.643Z,66.00
2023-03-29T03:49:51.979Z,65.51
2023-03-29T03:52:37.372Z,67.02
2023-03-29T03:55:22.725Z,66.52
2023-03-29T03:58:08.017Z,67.96
2023-03-29T04:00:52.824Z,66.86
2023-03-29T04:03:39.530Z,67.62
2023-03-29T04:06:25.311Z,68.11
2023-03-29T04:09:10.725Z,67.55
2023-03-29T04:11:56.615Z,67.93
2023-03-29T04:14:41.802Z,68.73
2023-03-29T04:17:27.148Z,68.36
2023-03-29T04:20:12.698Z,69.23
2023-03-29T04:22:58.116Z,69.00
2023-03-29T04:25:43.305Z,69.55
2023-03-29T04:28:28.494Z,69.99
2023-03-29T04:31:14.653Z,69.80
2023-03-29T04:34:00.402Z,70.38
2023-03-29T04:36:46.473Z,70.90
2023-03-29T04:39:33.853Z,71.08
2023-03-29T04:42:19.052Z,71.58
2023-03-29T04:45:04.816Z,71.52
2023-03-29T04:47:50.172Z,71.58
2023-03-29T04:50:36.479Z,71.74
2023-03-29T04:53:22.131Z,72.36
2023-03-29T04:56:07.925Z,72.81
2023-03-29T04:58:52.946Z,72.42
2023-03-29T05:01:38.291Z,72.98
2023-03-29T05:04:24.500Z,72.32
2023-03-29T05:07:09.384Z,73.47
2023-03-29T05:09:54.193Z,73.09
2023-03-29T05:12:39.320Z,73.46
2023-03-29T05:15:24.240Z,73.93
2023-03-29T05:18:09.512Z,74.69
2023-03-29T05:20:55.501Z,74.39
2023-03-29T05:23:40.672Z,74.33
2023-03-29T05:26:26.970Z,74.68
2023-03-29T05:29:12.217Z,75.05
2023-03-29T05:31:57.321Z,75.28
2023-03-29T05:34:42.096Z,75.28
2023-03-29T05:37:26.957Z,76.11
2023-03-29T05:40:13.015Z,76.50
2023-03-29T05:42:59.563Z,75.85
2023-03-29T05:45:45.083Z,75.94
2023-03-29T05:48:30.066Z,76.47
2023-03-29T05:51:15.376Z,76.67
2023-03-29T05:54:00.081Z,76.68
2023-03-29T05:56:44.904Z,76.66
2023-03-29T05:59:29.906Z,76.92
2023-03-29T06:02:16.337Z,77.15
2023-03-29T06:05:01.390Z,76.40
2023-03-29T06:07:49.650Z,76.94
2023-03-29T06:10:36.842Z,77.40
2023-03-29T06:13:22.847Z,77.64
2023-03-29T06:16:12.885Z,77.55
2023-03-29T06:18:58.453Z,77.80
2023-03-29T06:21:43.437Z,77.75
2023-03-29T06:24:28.705Z,77.82
2023-03-29T06:27:14.303Z,78.11
2023-03-29T06:30:00.491Z,77.95
2023-03-29T06:32:46.285Z,78.20
2023-03-29T06:35:31.642Z,78.01
2023-03-29T06:38:19.423Z,77.67
2023-03-29T06:41:05.860Z,77.55
2023-03-29T06:43:51.193Z,77.46
2023-03-29T06:46:37.569Z,77.38
2023-03-29T06:49:24.211Z,77.18
2023-03-29T06:52:10.051Z,77.47
2023-03-29T06:54:55.647Z,76.82
2023-03-29T06:57:40.570Z,76.87
2023-03-29T07:00:28.379Z,76.74
2023-03-29T07:03:21.036Z,76.67
2023-03-29T07:06:10.941Z,76.96
2023-03-29T07:08:59.939Z,76.13
2023-03-29T07:11:46.286Z,75.69
2023-03-29T07:14:31.545Z,76.14
2023-03-29T07:17:16.847Z,76.57
2023-03-29T07:20:02.458Z,75.63
2023-03-29T07:22:48.069Z,75.90
2023-03-29T07:25:34.394Z,75.92
2023-03-29T07:28:19.968Z,75.96
2023-03-29T07:31:11.259Z,75.70
2023-03-29T07:33:56.747Z,75.48
2023-03-29T07:36:43.988Z,74.19
2023-03-29T07:39:28.820Z,73.58
2023-03-29T07:42:14.184Z,73.96
2023-03-29T07:45:00.329Z,73.90
2023-03-29T07:47:49.090Z,73.72
2023-03-29T07:50:34.909Z,72.61
2023-03-29T07:53:20.091Z,73.15
2023-03-29T07:56:06.189Z,73.14
2023-03-29T07:58:51.619Z,71.64
2023-03-29T08:01:36.871Z,71.36
2023-03-29T08:04:22.577Z,71.07
2023-03-29T08:07:08.117Z,71.25
2023-03-29T08:09:53.104Z,70.20
2023-03-29T08:12:38.559Z,69.84
2023-03-29T08:15:23.446Z,70.20
2023-03-29T08:18:08.606Z,68.59
2023-03-29T08:20:53.347Z,69.00
2023-03-29T08:23:39.092Z,69.62
2023-03-29T08:26:23.937Z,68.85
2023-03-29T08:29:09.539Z,69.50
2023-03-29T08:31:56.541Z,68.23
2023-03-29T08:34:41.440Z,68.26
2023-03-29T08:37:28.685Z,68.00
2023-03-29T08:40:21.416Z,67.38
2023-03-29T08:43:46.694Z,67.78
2023-03-29T08:46:44.030Z,68.75
2023-03-29T08:49:30.319Z,67.91
2023-03-29T08:52:56.905Z,67.82
2023-03-29T08:55:48.859Z,67.14
2023-03-29T08:58:35.914Z,67.04
2023-03-29T09:01:22.888Z,67.34
2023-03-29T09:04:13.173Z,65.27
2023-03-29T09:06:58.519Z,66.16
2023-03-29T09:09:44.589Z,65.43
2023-03-29T09:12:46.452Z,66.03
2023-03-29T09:16:01.976Z,66.93
2023-03-29T09:19:14.660Z,66.12
2023-03-29T09:22:40.204Z,66.16
2023-03-29T09:25:53.353Z,66.09
2023-03-29T09:28:51.968Z,64.83
2023-03-29T09:31:42.615Z,65.82
2023-03-29T09:34:45.517Z,67.24
2023-03-29T09:37:35.514Z,64.78
2023-03-29T09:40:30.048Z,64.95
2023-03-29T09:43:26.647Z,65.56
2023-03-29T09:46:43.233Z,64.05
2023-03-29T09:49:41.981Z,63.17
2023-03-29T09:52:27.837Z,63.37
2023-03-29T09:55:26.307Z,62.97
2023-03-29T09:58:18.319Z,63.10
2023-03-29T10:01:09.913Z,63.15
2023-03-29T10:03:58.987Z,62.49
2023-03-29T10:06:50.152Z,61.71
2023-03-29T10:09:38.059Z,62.71
2023-03-29T10:12:23.225Z,63.18
2023-03-29T10:15:26.687Z,63.52
2023-03-29T10:18:15.271Z,62.79
2023-03-29T10:21:03.966Z,61.59
2023-03-29T10:23:58.529Z,61.06
2023-03-29T10:26:43.496Z,61.13
2023-03-29T10:29:37.966Z,60.38
2023-03-29T10:32:25.433Z,60.84
2023-03-29T10:35:32.156Z,59.85
2023-03-29T10:38:21.772Z,59.97
2023-03-29T10:41:12.559Z,59.02
2023-03-29T10:43:58.993Z,59.47
2023-03-29T10:46:44.164Z,59.89
2023-03-29T10:49:29.750Z,59.78
2023-03-29T10:52:16.442Z,60.34
2023-03-29T10:55:02.817Z,60.56
2023-03-29T10:57:54.414Z,61.98
2023-03-29T11:00:57.887Z,62.40
2023-03-29T11:04:26.219Z,62.07
2023-03-29T11:07:29.855Z,62.14
2023-03-29T11:10:36.962Z,62.27
2023-03-29T11:13:40.271Z,61.55
2023-03-29T11:16:55.380Z,60.80
2023-03-29T11:20:17.775Z,62.63
2023-03-29T11:23:37.417Z,62.52
2023-03-29T11:26:29.423Z,63.03
2023-03-29T11:29:26.983Z,62.37
2023-03-29T11:32:25.749Z,62.74
2023-03-29T11:35:25.933Z,59.80
2023-03-29T11:38:16.844Z,60.18
2023-03-29T11:41:24.421Z,61.20
2023-03-29T11:44:17.474Z,60.63
2023-03-29T11:47:10.782Z,60.15
2023-03-29T11:50:06.114Z,59.95
2023-03-29T11:53:02.315Z,58.99
2023-03-29T11:55:50.424Z,60.61
2023-03-29T11:58:39.934Z,59.89
2023-03-29T12:01:34.599Z,59.39
2023-03-29T12:04:36.150Z,60.06
2023-03-29T12:07:50.524Z,60.60
2023-03-29T12:11:17.284Z,61.21
2023-03-29T12:14:09.758Z,61.01
2023-03-29T12:17:04.574Z,60.86
2023-03-29T12:20:02.569Z,61.42
2023-03-29T12:22:50.872Z,61.54
2023-03-29T12:25:58.817Z,62.75
2023-03-29T12:29:10.347Z,62.15
2023-03-29T12:32:21.887Z,62.92
2023-03-29T12:35:40.145Z,64.56
2023-03-29T12:38:30.555Z,63.73
2023-03-29T12:41:24.271Z,63.71
2023-03-29T12:44:15.043Z,63.99
2023-03-29T12:47:01.735Z,64.10
2023-03-29T12:49:47.512Z,64.06
2023-03-29T12:52:36.914Z,62.96
2023-03-29T12:55:52.732Z,63.10
2023-03-29T12:58:56.446Z,63.32
2023-03-29T13:01:57.724Z,62.80
2023-03-29T13:04:43.143Z,62.74
2023-03-29T13:07:32.445Z,61.52
2023-03-29T13:10:36.721Z,61.92
2023-03-29T13:13:29.588Z,60.96
2023-03-29T13:16:17.277Z,60.65
2023-03-29T13:19:46.164Z,61.43
2023-03-29T13:23:01.964Z,59.91
2023-03-29T13:26:03.580Z,60.31
2023-03-29T13:29:14.091Z,59.68
2023-03-29T13:32:38.508Z,59.21
2023-03-29T13:36:17.782Z,57.65
2023-03-29T13:39:07.056Z,57.20
2023-03-29T13:41:54.190Z,57.30
2023-03-29T13:44:46.023Z,57.05
2023-03-29T13:47:31.066Z,55.30
2023-03-29T13:50:29.435Z,56.03
2023-03-29T13:53:26.404Z,57.72
2023-03-29T13:56:23.359Z,57.90
2023-03-29T13:59:19.597Z,58.80
2023-03-29T14:02:06.916Z,59.78
2023-03-29T14:04:52.417Z,60.12
2023-03-29T14:07:41.430Z,60.05
2023-03-29T14:10:40.114Z,60.09
2023-03-29T14:13:25.804Z,60.23
2023-03-29T14:16:13.036Z,60.84
2023-03-29T14:19:21.641Z,60.31
2023-03-29T14:22:15.381Z,61.35
2023-03-29T14:25:12.934Z,61.02
2023-03-29T14:27:58.130Z,61.64
2023-03-29T14:30:47.073Z,62.71
2023-03-29T14:33:37.882Z,63.15
2023-03-29T14:36:25.408Z,63.04
2023-03-29T14:39:15.869Z,63.67
2023-03-29T14:42:02.045Z,63.91
2023-03-29T14:44:50.073Z,64.23
2023-03-29T14:47:37.069Z,64.66
2023-03-29T14:50:31.462Z,65.49
2023-03-29T14:53:20.615Z,66.13
2023-03-29T14:56:07.529Z,66.16
2023-03-29T14:58:57.022Z,65.84
2023-03-29T15:01:45.058Z,66.47
2023-03-29T15:04:36.004Z,67.52
2023-03-29T15:07:23.596Z,66.96
2023-03-29T15:10:18.718Z,67.68
2023-03-29T15:13:05.011Z,67.87
2023-03-29T15:16:00.932Z,69.01
2023-03-29T15:18:48.927Z,69.46
2023-03-29T15:21:35.618Z,69.17
2023-03-29T15:24:28.187Z,69.39
2023-03-29T15:27:19.485Z,69.28
2023-03-29T15:30:12.938Z,69.79
2023-03-29T15:33:14.347Z,70.35
2023-03-29T15:36:03.080Z,70.02
2023-03-29T15:38:49.550Z,70.86
2023-03-29T15:41:34.319Z,70.50
2023-03-29T15:44:26.642Z,70.91
2023-03-29T15:47:12.528Z,71.60
2023-03-29T15:49:58.175Z,71.78
2023-03-29T15:52:43.022Z,71.60
2023-03-29T15:55:29.978Z,72.01
2023-03-29T15:58:16.890Z,72.38
2023-03-29T16:01:34.716Z,71.95
2023-03-29T16:04:20.938Z,71.97
2023-03-29T16:07:11.218Z,71.96
2023-03-29T16:09:56.548Z,72.56
2023-03-29T16:12:41.722Z,72.62
2023-03-29T16:15:27.147Z,71.91
2023-03-29T16:18:12.249Z,72.72
2023-03-29T16:20:57.779Z,73.10
2023-03-29T16:23:44.499Z,73.37
2023-03-29T16:26:31.702Z,73.46
2023-03-29T16:29:17.979Z,73.86
2023-03-29T16:32:06.244Z,73.83
2023-03-29T16:34:53.564Z,73.97
2023-03-29T16:37:39.739Z,74.33
2023-03-29T16:40:24.986Z,74.48
2023-03-29T16:43:15.913Z,74.52
2023-03-29T16:46:01.543Z,74.34
2023-03-29T16:48:47.038Z,74.78
2023-03-29T16:51:32.772Z,74.99
2023-03-29T16:54:19.937Z,75.33
2023-03-29T16:57:07.618Z,75.35
2023-03-29T16:59:53.385Z,76.06
2023-03-29T17:02:38.778Z,75.99
2023-03-29T17:05:25.170Z,75.34
2023-03-29T17:08:10.517Z,75.82
2023-03-29T17:10:55.768Z,76.04
2023-03-29T17:13:41.445Z,76.07
2023-03-29T17:16:30.695Z,75.99
2023-03-29T17:19:15.942Z,76.61
2023-03-29T17:22:01.856Z,76.62
2023-03-29T17:24:46.985Z,76.91
2023-03-29T17:27:32.148Z,76.77
2023-03-29T17:30:20.001Z,76.96
2023-03-29T17:33:06.488Z,76.70
2023-03-29T17:35:53.641Z,76.36
2023-03-29T17:38:38.922Z,76.22
2023-03-29T17:41:24.966Z,76.60
2023-03-29T17:44:11.062Z,76.58
2023-03-29T17:46:56.199Z,77.22
2023-03-29T17:49:41.365Z,77.19
2023-03-29T17:52:26.967Z,77.00
2023-03-29T17:55:13.869Z,77.02
2023-03-29T17:57:59.619Z,76.97
2023-03-29T18:00:52.408Z,77.19
2023-03-29T18:03:39.801Z,77.78
2023-03-29T18:06:25.917Z,78.04
2023-03-29T18:09:13.980Z,78.24
2023-03-29T18:12:00.106Z,78.23
2023-03-29T18:14:46.520Z,79.09
2023-03-29T18:17:37.639Z,78.92
2023-03-29T18:20:25.532Z,78.86
2023-03-29T18:23:10.246Z,79.06
2023-03-29T18:26:05.890Z,79.65
2023-03-29T18:28:53.702Z,79.19
2023-03-29T18:31:39.092Z,79.68
2023-03-29T18:34:24.791Z,79.80
2023-03-29T18:37:14.470Z,79.56
2023-03-29T18:40:01.814Z,79.78
2023-03-29T18:42:49.678Z,80.04
2023-03-29T18:45:37.270Z,80.42
2023-03-29T18:48:24.486Z,80.42
2023-03-29T18:51:11.466Z,80.53
2023-03-29T18:54:01.051Z,80.33
2023-03-29T18:56:49.043Z,80.68
2023-03-29T18:59:38.062Z,80.53
2023-03-29T19:02:23.894Z,80.43
2023-03-29T19:05:10.383Z,80.70
2023-03-29T19:07:56.261Z,80.70
2023-03-29T19:10:41.763Z,81.24
2023-03-29T19:13:27.498Z,81.01
2023-03-29T19:16:12.662Z,81.12
2023-03-29T19:18:58.005Z,81.25
2023-03-29T19:21:44.467Z,81.45
2023-03-29T19:24:32.287Z,80.87
2023-03-29T19:27:17.302Z,81.31
2023-03-29T19:30:05.692Z,80.56
2023-03-29T19:32:51.822Z,81.18
2023-03-29T19:35:36.903Z,80.95
2023-03-29T19:38:22.409Z,81.33
2023-03-29T19:41:08.251Z,81.81
2023-03-29T19:43:53.178Z,81.52
2023-03-29T19:46:38.630Z,81.76
2023-03-29T19:49:24.022Z,82.00
2023-03-29T19:52:11.858Z,81.72
2023-03-29T19:54:57.225Z,82.20
2023-03-29T19:57:42.454Z,82.01
2023-03-29T20:00:29.583Z,82.21
2023-03-29T20:03:15.554Z,82.32
2023-03-29T20:06:02.015Z,83.00
2023-03-29T20:08:47.486Z,82.95
2023-03-29T20:11:33.206Z,82.96
2023-03-29T20:14:21.369Z,82.83
2023-03-29T20:17:08.062Z,82.42
2023-03-29T20:19:54.095Z,82.64
2023-03-29T20:22:42.704Z,82.60
2023-03-29T20:25:28.613Z,82.85
2023-03-29T20:28:13.817Z,83.02
2023-03-29T20:31:04.950Z,82.82
2023-03-29T20:33:50.172Z,82.72
2023-03-29T20:36:38.669Z,83.01
2023-03-29T20:39:31.176Z,83.03
2023-03-29T20:42:17.223Z,82.90
2023-03-29T20:45:02.385Z,83.28
2023-03-29T20:47:58.663Z,83.05
2023-03-29T20:50:47.386Z,82.67
2023-03-29T20:53:34.537Z,83.24
2023-03-29T20:56:20.697Z,83.27
2023-03-29T20:59:07.496Z,84.23
2023-03-29T21:01:52.322Z,83.62
2023-03-29T21:04:37.775Z,84.19
2023-03-29T21:07:22.973Z,84.60
2023-03-29T21:10:08.092Z,84.95
2023-03-29T21:13:00.740Z,85.65
2023-03-29T21:15:46.990Z,85.18
2023-03-29T21:18:31.632Z,84.45
2023-03-29T21:21:16.486Z,84.66
2023-03-29T21:24:02.758Z,85.27
2023-03-29T21:26:47.661Z,85.25
2023-03-29T21:29:32.604Z,85.54
2023-03-29T21:32:17.568Z,86.08
2023-03-29T21:35:03.168Z,85.72
2023-03-29T21:37:49.876Z,85.88
2023-03-29T21:40:38.067Z,85.56
2023-03-29T21:43:23.293Z,85.24
2023-03-29T21:46:09.807Z,85.44
2023-03-29T21:48:56.646Z,85.39
2023-03-29T21:51:41.465Z,84.68
2023-03-29T21:54:26.716Z,85.61
2023-03-29T21:57:11.924Z,84.93
2023-03-29T21:59:57.207Z,85.27
2023-03-29T22:02:42.456Z,85.55
2023-03-29T22:05:27.784Z,85.62
2023-03-29T22:08:12.624Z,85.93
2023-03-29T22:10:57.717Z,86.62
2023-03-29T22:13:43.634Z,86.67
2023-03-29T22:16:28.615Z,86.58
2023-03-29T22:19:13.393Z,86.05
2023-03-29T22:22:01.247Z,86.04
2023-03-29T22:24:46.685Z,86.05
2023-03-29T22:27:32.279Z,86.75
2023-03-29T22:30:17.677Z,86.46
2023-03-29T22:33:02.833Z,87.14
2023-03-29T22:35:50.918Z,87.24
2023-03-29T22:38:36.228Z,87.28
2023-03-29T22:41:24.010Z,87.04
2023-03-29T22:44:09.600Z,88.04
2023-03-29T22:46:55.964Z,88.10
2023-03-29T22:49:41.631Z,87.92
2023-03-29T22:52:26.802Z,88.40
2023-03-29T22:55:12.553Z,88.76
2023-03-29T22:57:57.599Z,89.08
2023-03-29T23:00:43.508Z,89.19
2023-03-29T23:03:28.343Z,89.82
2023-03-29T23:06:13.300Z,89.66
2023-03-29T23:08:58.441Z,90.03
2023-03-29T23:11:43.878Z,89.30
2023-03-29T23:14:29.195Z,89.92
2023-03-29T23:17:19.537Z,89.54
2023-03-29T23:20:05.987Z,89.77
2023-03-29T23:22:51.310Z,90.15
2023-03-29T23:25:36.337Z,90.03
2023-03-29T23:28:24.702Z,89.88
2023-03-29T23:31:13.220Z,89.95
2023-03-29T23:33:59.299Z,90.95
2023-03-29T23:36:44.138Z,91.38
2023-03-29T23:39:29.485Z,91.13
2023-03-29T23:42:14.657Z,90.52
2023-03-29T23:45:00.026Z,90.83
2023-03-29T23:47:45.554Z,90.29
2023-03-29T23:50:30.281Z,90.32
2023-03-29T23:53:16.129Z,90.39
2023-03-29T23:56:03.799Z,90.89
2023-03-29T23:58:49.146Z,90.51
